sensor_id;sensor_type;location;lat;lon;timestamp;P1;durP1;ratioP1;P2;durP2;ratioP2
22015;SDS011;64992;51.698;-0.292;2023-07-13T00:01:38;9.05;;;2.97;;
22015;SDS011;64992;51.698;-0.292;2023-07-13T00:04:04;7.72;;;3.63;;
22015;SDS011;64992;51.698;-0.292;2023-07-13T00:06:31;4.63;;;2.72;;
22015;SDS011;64992;51.698;-0.292;2023-07-13T00:08:57;7.15;;;2.83;;
22015;SDS011;64992;51.698;-0.292;2023-07-13T00:11:23;8.32;;;3.65;;
22015;SDS011;64992;51.698;-0.292;2023-07-13T00:13:50;6.90;;;2.90;;
22015;SDS011;64992;51.698;-0.292;2023-07-13T00:16:16;8.95;;;3.08;;
22015;SDS011;64992;51.698;-0.292;2023-07-13T00:18:43;6.85;;;3.70;;
22015;SDS011;64992;51.698;-0.292;2023-07-13T00:21:09;7.45;;;3.20;;
22015;SDS011;64992;51.698;-0.292;2023-07-13T00:23:36;5.47;;;3.20;;
22015;SDS011;64992;51.698;-0.292;2023-07-13T00:26:04;6.47;;;3.88;;
22015;SDS011;64992;51.698;-0.292;2023-07-13T00:28:30;10.00;;;3.63;;
22015;SDS011;64992;51.698;-0.292;2023-07-13T00:30:56;6.70;;;3.35;;
22015;SDS011;64992;51.698;-0.292;2023-07-13T00:33:22;7.68;;;3.72;;
22015;SDS011;64992;51.698;-0.292;2023-07-13T00:35:49;6.70;;;4.13;;
22015;SDS011;64992;51.698;-0.292;2023-07-13T00:38:15;5.93;;;3.35;;
22015;SDS011;64992;51.698;-0.292;2023-07-13T00:40:42;5.75;;;2.75;;
22015;SDS011;64992;51.698;-0.292;2023-07-13T00:43:13;8.32;;;3.25;;
22015;SDS011;64992;51.698;-0.292;2023-07-13T00:48:09;8.27;;;3.17;;
22015;SDS011;64992;51.698;-0.292;2023-07-13T00:50:35;8.27;;;3.13;;
22015;SDS011;64992;51.698;-0.292;2023-07-13T00:53:01;8.05;;;3.40;;
22015;SDS011;64992;51.698;-0.292;2023-07-13T00:55:28;9.50;;;3.58;;
22015;SDS011;64992;51.698;-0.292;2023-07-13T00:57:54;6.70;;;3.17;;
22015;SDS011;64992;51.698;-0.292;2023-07-13T01:00:21;9.30;;;3.45;;
22015;SDS011;64992;51.698;-0.292;2023-07-13T01:02:48;10.45;;;3.90;;
22015;SDS011;64992;51.698;-0.292;2023-07-13T01:05:16;5.10;;;2.92;;
22015;SDS011;64992;51.698;-0.292;2023-07-13T01:07:43;7.22;;;3.80;;
22015;SDS011;64992;51.698;-0.292;2023-07-13T01:10:09;12.63;;;3.65;;
22015;SDS011;64992;51.698;-0.292;2023-07-13T01:12:36;5.72;;;3.92;;
22015;SDS011;64992;51.698;-0.292;2023-07-13T01:15:02;9.55;;;3.70;;
22015;SDS011;64992;51.698;-0.292;2023-07-13T01:23:10;9.13;;;3.67;;
22015;SDS011;64992;51.698;-0.292;2023-07-13T01:31:08;6.80;;;3.40;;
22015;SDS011;64992;51.698;-0.292;2023-07-13T01:44:39;12.00;;;5.07;;
22015;SDS011;64992;51.698;-0.292;2023-07-13T01:47:05;8.77;;;3.97;;
22015;SDS011;64992;51.698;-0.292;2023-07-13T01:57:47;15.25;;;3.53;;
22015;SDS011;64992;51.698;-0.292;2023-07-13T02:02:57;8.40;;;3.40;;
22015;SDS011;64992;51.698;-0.292;2023-07-13T02:08:10;6.55;;;3.90;;
22015;SDS011;64992;51.698;-0.292;2023-07-13T02:10:36;8.32;;;4.30;;
22015;SDS011;64992;51.698;-0.292;2023-07-13T02:13:04;5.47;;;3.17;;
22015;SDS011;64992;51.698;-0.292;2023-07-13T02:15:30;11.70;;;4.22;;
22015;SDS011;64992;51.698;-0.292;2023-07-13T02:17:56;11.30;;;3.80;;
22015;SDS011;64992;51.698;-0.292;2023-07-13T02:20:23;9.38;;;3.90;;
22015;SDS011;64992;51.698;-0.292;2023-07-13T02:22:49;7.50;;;3.55;;
22015;SDS011;64992;51.698;-0.292;2023-07-13T02:25:16;8.20;;;3.72;;
22015;SDS011;64992;51.698;-0.292;2023-07-13T02:27:42;11.68;;;4.47;;
22015;SDS011;64992;51.698;-0.292;2023-07-13T02:30:08;9.95;;;4.10;;
22015;SDS011;64992;51.698;-0.292;2023-07-13T02:32:34;10.07;;;3.97;;
22015;SDS011;64992;51.698;-0.292;2023-07-13T02:35:00;7.05;;;3.88;;
22015;SDS011;64992;51.698;-0.292;2023-07-13T02:37:26;10.82;;;4.75;;
22015;SDS011;64992;51.698;-0.292;2023-07-13T02:39:52;11.68;;;4.53;;
22015;SDS011;64992;51.698;-0.292;2023-07-13T02:42:19;12.05;;;4.07;;
22015;SDS011;64992;51.698;-0.292;2023-07-13T02:44:45;9.85;;;4.20;;
22015;SDS011;64992;51.698;-0.292;2023-07-13T02:47:11;8.95;;;4.38;;
22015;SDS011;64992;51.698;-0.292;2023-07-13T02:49:38;16.77;;;5.10;;
22015;SDS011;64992;51.698;-0.292;2023-07-13T02:52:04;6.97;;;3.97;;
22015;SDS011;64992;51.698;-0.292;2023-07-13T02:54:30;6.82;;;4.15;;
22015;SDS011;64992;51.698;-0.292;2023-07-13T02:56:56;10.95;;;4.03;;
22015;SDS011;64992;51.698;-0.292;2023-07-13T02:59:22;9.63;;;4.53;;
22015;SDS011;64992;51.698;-0.292;2023-07-13T03:01:48;7.15;;;3.40;;
22015;SDS011;64992;51.698;-0.292;2023-07-13T03:04:14;10.18;;;4.60;;
22015;SDS011;64992;51.698;-0.292;2023-07-13T03:06:44;9.18;;;4.38;;
22015;SDS011;64992;51.698;-0.292;2023-07-13T03:09:10;9.60;;;4.60;;
22015;SDS011;64992;51.698;-0.292;2023-07-13T03:11:37;10.82;;;4.95;;
22015;SDS011;64992;51.698;-0.292;2023-07-13T03:14:04;7.32;;;3.85;;
22015;SDS011;64992;51.698;-0.292;2023-07-13T03:16:30;7.72;;;4.78;;
22015;SDS011;64992;51.698;-0.292;2023-07-13T03:18:56;10.63;;;4.78;;
22015;SDS011;64992;51.698;-0.292;2023-07-13T03:21:22;10.40;;;4.53;;
22015;SDS011;64992;51.698;-0.292;2023-07-13T03:23:48;7.05;;;4.30;;
22015;SDS011;64992;51.698;-0.292;2023-07-13T03:26:15;10.38;;;4.47;;
22015;SDS011;64992;51.698;-0.292;2023-07-13T03:28:42;12.57;;;3.97;;
22015;SDS011;64992;51.698;-0.292;2023-07-13T03:31:09;11.05;;;4.85;;
22015;SDS011;64992;51.698;-0.292;2023-07-13T03:33:36;9.35;;;4.60;;
22015;SDS011;64992;51.698;-0.292;2023-07-13T03:36:02;12.43;;;5.20;;
22015;SDS011;64992;51.698;-0.292;2023-07-13T03:38:29;8.75;;;4.32;;
22015;SDS011;64992;51.698;-0.292;2023-07-13T03:40:55;9.77;;;3.97;;
22015;SDS011;64992;51.698;-0.292;2023-07-13T03:43:21;11.93;;;5.38;;
22015;SDS011;64992;51.698;-0.292;2023-07-13T03:45:47;9.73;;;4.32;;
22015;SDS011;64992;51.698;-0.292;2023-07-13T03:48:13;10.52;;;4.85;;
22015;SDS011;64992;51.698;-0.292;2023-07-13T03:50:39;16.75;;;4.75;;
22015;SDS011;64992;51.698;-0.292;2023-07-13T03:53:05;12.63;;;5.22;;
22015;SDS011;64992;51.698;-0.292;2023-07-13T03:55:31;13.70;;;5.20;;
22015;SDS011;64992;51.698;-0.292;2023-07-13T03:57:58;10.73;;;4.50;;
22015;SDS011;64992;51.698;-0.292;2023-07-13T04:00:24;12.10;;;4.53;;
22015;SDS011;64992;51.698;-0.292;2023-07-13T04:02:51;9.88;;;4.57;;
22015;SDS011;64992;51.698;-0.292;2023-07-13T04:05:17;16.75;;;5.65;;
22015;SDS011;64992;51.698;-0.292;2023-07-13T04:07:43;9.68;;;4.40;;
22015;SDS011;64992;51.698;-0.292;2023-07-13T04:10:09;13.98;;;4.88;;
22015;SDS011;64992;51.698;-0.292;2023-07-13T04:12:35;7.03;;;4.43;;
22015;SDS011;64992;51.698;-0.292;2023-07-13T04:15:01;9.57;;;4.65;;
22015;SDS011;64992;51.698;-0.292;2023-07-13T04:17:28;10.10;;;5.10;;
22015;SDS011;64992;51.698;-0.292;2023-07-13T04:19:54;9.30;;;4.75;;
22015;SDS011;64992;51.698;-0.292;2023-07-13T04:22:20;12.18;;;4.63;;
22015;SDS011;64992;51.698;-0.292;2023-07-13T04:24:46;8.15;;;4.53;;
22015;SDS011;64992;51.698;-0.292;2023-07-13T04:27:12;10.05;;;4.55;;
22015;SDS011;64992;51.698;-0.292;2023-07-13T04:29:38;8.52;;;5.13;;
22015;SDS011;64992;51.698;-0.292;2023-07-13T04:32:04;15.70;;;5.47;;
22015;SDS011;64992;51.698;-0.292;2023-07-13T04:34:31;12.05;;;4.82;;
22015;SDS011;64992;51.698;-0.292;2023-07-13T04:36:57;11.73;;;4.97;;
22015;SDS011;64992;51.698;-0.292;2023-07-13T04:39:23;11.38;;;5.07;;
22015;SDS011;64992;51.698;-0.292;2023-07-13T04:41:50;13.40;;;4.65;;
22015;SDS011;64992;51.698;-0.292;2023-07-13T04:44:16;10.75;;;4.45;;
22015;SDS011;64992;51.698;-0.292;2023-07-13T04:46:42;7.03;;;4.22;;
22015;SDS011;64992;51.698;-0.292;2023-07-13T04:49:08;14.75;;;5.35;;
22015;SDS011;64992;51.698;-0.292;2023-07-13T04:51:34;12.10;;;4.20;;
22015;SDS011;64992;51.698;-0.292;2023-07-13T04:54:01;7.03;;;4.55;;
22015;SDS011;64992;51.698;-0.292;2023-07-13T04:56:27;10.82;;;4.82;;
22015;SDS011;64992;51.698;-0.292;2023-07-13T04:58:53;12.23;;;4.78;;
22015;SDS011;64992;51.698;-0.292;2023-07-13T05:01:19;7.97;;;4.53;;
22015;SDS011;64992;51.698;-0.292;2023-07-13T05:03:45;9.70;;;4.38;;
22015;SDS011;64992;51.698;-0.292;2023-07-13T05:06:11;9.05;;;4.30;;
22015;SDS011;64992;51.698;-0.292;2023-07-13T05:08:38;9.90;;;4.25;;
22015;SDS011;64992;51.698;-0.292;2023-07-13T05:11:05;8.27;;;4.45;;
22015;SDS011;64992;51.698;-0.292;2023-07-13T05:13:32;6.75;;;4.38;;
22015;SDS011;64992;51.698;-0.292;2023-07-13T05:15:59;11.70;;;4.15;;
22015;SDS011;64992;51.698;-0.292;2023-07-13T05:18:25;6.95;;;3.83;;
22015;SDS011;64992;51.698;-0.292;2023-07-13T05:21:25;11.88;;;4.50;;
22015;SDS011;64992;51.698;-0.292;2023-07-13T05:23:44;8.68;;;4.30;;
22015;SDS011;64992;51.698;-0.292;2023-07-13T05:26:10;12.30;;;4.13;;
22015;SDS011;64992;51.698;-0.292;2023-07-13T05:28:36;15.02;;;4.85;;
22015;SDS011;64992;51.698;-0.292;2023-07-13T05:31:03;10.60;;;4.10;;
22015;SDS011;64992;51.698;-0.292;2023-07-13T05:33:29;6.13;;;4.40;;
22015;SDS011;64992;51.698;-0.292;2023-07-13T05:35:55;6.68;;;3.75;;
22015;SDS011;64992;51.698;-0.292;2023-07-13T05:38:21;9.30;;;5.40;;
22015;SDS011;64992;51.698;-0.292;2023-07-13T05:40:47;10.35;;;3.95;;
22015;SDS011;64992;51.698;-0.292;2023-07-13T05:43:14;8.32;;;3.80;;
22015;SDS011;64992;51.698;-0.292;2023-07-13T05:45:40;7.82;;;4.47;;
22015;SDS011;64992;51.698;-0.292;2023-07-13T05:48:06;11.57;;;4.03;;
22015;SDS011;64992;51.698;-0.292;2023-07-13T05:50:32;10.63;;;3.50;;
22015;SDS011;64992;51.698;-0.292;2023-07-13T05:52:58;8.35;;;4.10;;
22015;SDS011;64992;51.698;-0.292;2023-07-13T06:03:38;10.98;;;4.03;;
22015;SDS011;64992;51.698;-0.292;2023-07-13T06:06:05;6.57;;;3.70;;
22015;SDS011;64992;51.698;-0.292;2023-07-13T06:19:31;7.90;;;3.15;;
22015;SDS011;64992;51.698;-0.292;2023-07-13T07:01:20;4.93;;;3.33;;
22015;SDS011;64992;51.698;-0.292;2023-07-13T07:03:53;10.60;;;3.50;;
22015;SDS011;64992;51.698;-0.292;2023-07-13T07:06:20;6.32;;;2.85;;
22015;SDS011;64992;51.698;-0.292;2023-07-13T07:11:43;6.97;;;3.42;;
22015;SDS011;64992;51.698;-0.292;2023-07-13T07:14:11;7.60;;;3.55;;
22015;SDS011;64992;51.698;-0.292;2023-07-13T07:28:40;8.65;;;3.28;;
22015;SDS011;64992;51.698;-0.292;2023-07-13T07:31:06;8.95;;;3.58;;
22015;SDS011;64992;51.698;-0.292;2023-07-13T07:39:58;7.47;;;3.55;;
22015;SDS011;64992;51.698;-0.292;2023-07-13T07:45:46;10.65;;;4.00;;
22015;SDS011;64992;51.698;-0.292;2023-07-13T07:48:44;10.00;;;3.90;;
22015;SDS011;64992;51.698;-0.292;2023-07-13T07:51:10;10.25;;;3.60;;
22015;SDS011;64992;51.698;-0.292;2023-07-13T07:53:36;12.98;;;3.88;;
22015;SDS011;64992;51.698;-0.292;2023-07-13T07:56:21;9.93;;;3.33;;
22015;SDS011;64992;51.698;-0.292;2023-07-13T08:26:39;9.77;;;3.75;;
22015;SDS011;64992;51.698;-0.292;2023-07-13T08:32:08;12.20;;;4.10;;
22015;SDS011;64992;51.698;-0.292;2023-07-13T08:37:57;7.25;;;3.53;;
22015;SDS011;64992;51.698;-0.292;2023-07-13T08:44:33;5.95;;;3.03;;
22015;SDS011;64992;51.698;-0.292;2023-07-13T08:49:53;5.97;;;2.92;;
22015;SDS011;64992;51.698;-0.292;2023-07-13T08:52:48;5.43;;;2.70;;
22015;SDS011;64992;51.698;-0.292;2023-07-13T09:10:31;3.58;;;2.83;;
22015;SDS011;64992;51.698;-0.292;2023-07-13T09:21:43;7.83;;;2.90;;
22015;SDS011;64992;51.698;-0.292;2023-07-13T09:27:26;7.53;;;3.20;;
22015;SDS011;64992;51.698;-0.292;2023-07-13T09:35:55;5.07;;;3.10;;
22015;SDS011;64992;51.698;-0.292;2023-07-13T09:47:33;7.38;;;3.55;;
22015;SDS011;64992;51.698;-0.292;2023-07-13T09:59:32;5.65;;;2.65;;
22015;SDS011;64992;51.698;-0.292;2023-07-13T10:02:00;7.63;;;2.70;;
22015;SDS011;64992;51.698;-0.292;2023-07-13T10:07:23;4.80;;;2.25;;
22015;SDS011;64992;51.698;-0.292;2023-07-13T10:12:35;6.05;;;2.50;;
22015;SDS011;64992;51.698;-0.292;2023-07-13T10:50:48;4.03;;;1.83;;
22015;SDS011;64992;51.698;-0.292;2023-07-13T10:56:21;3.10;;;1.80;;
22015;SDS011;64992;51.698;-0.292;2023-07-13T11:02:31;5.25;;;1.98;;
22015;SDS011;64992;51.698;-0.292;2023-07-13T11:19:38;8.60;;;2.00;;
22015;SDS011;64992;51.698;-0.292;2023-07-13T11:39:34;4.45;;;1.88;;
22015;SDS011;64992;51.698;-0.292;2023-07-13T11:54:23;4.32;;;2.15;;
22015;SDS011;64992;51.698;-0.292;2023-07-13T11:56:50;4.85;;;2.22;;
22015;SDS011;64992;51.698;-0.292;2023-07-13T12:05:12;3.65;;;2.00;;
22015;SDS011;64992;51.698;-0.292;2023-07-13T12:07:40;3.13;;;1.90;;
22015;SDS011;64992;51.698;-0.292;2023-07-13T12:15:39;3.13;;;1.80;;
22015;SDS011;64992;51.698;-0.292;2023-07-13T12:34:49;3.80;;;2.00;;
22015;SDS011;64992;51.698;-0.292;2023-07-13T13:18:31;3.45;;;1.75;;
22015;SDS011;64992;51.698;-0.292;2023-07-13T13:26:27;4.78;;;2.60;;
22015;SDS011;64992;51.698;-0.292;2023-07-13T13:28:55;2.35;;;1.60;;
22015;SDS011;64992;51.698;-0.292;2023-07-13T13:31:33;2.85;;;2.13;;
22015;SDS011;64992;51.698;-0.292;2023-07-13T13:33:59;3.30;;;2.30;;
22015;SDS011;64992;51.698;-0.292;2023-07-13T13:36:25;4.13;;;2.63;;
22015;SDS011;64992;51.698;-0.292;2023-07-13T13:47:50;8.75;;;4.20;;
22015;SDS011;64992;51.698;-0.292;2023-07-13T13:49:58;7.03;;;3.58;;
22015;SDS011;64992;51.698;-0.292;2023-07-13T13:52:25;4.50;;;3.40;;
22015;SDS011;64992;51.698;-0.292;2023-07-13T14:03:08;3.50;;;2.90;;
22015;SDS011;64992;51.698;-0.292;2023-07-13T14:27:37;3.63;;;2.75;;
22015;SDS011;64992;51.698;-0.292;2023-07-13T14:30:09;3.00;;;2.60;;
22015;SDS011;64992;51.698;-0.292;2023-07-13T14:32:38;4.65;;;2.33;;
22015;SDS011;64992;51.698;-0.292;2023-07-13T14:37:49;5.45;;;2.70;;
22015;SDS011;64992;51.698;-0.292;2023-07-13T14:45:49;2.42;;;2.22;;
22015;SDS011;64992;51.698;-0.292;2023-07-13T14:48:17;3.88;;;2.28;;
22015;SDS011;64992;51.698;-0.292;2023-07-13T14:50:44;3.72;;;2.50;;
22015;SDS011;64992;51.698;-0.292;2023-07-13T14:53:11;4.38;;;2.15;;
22015;SDS011;64992;51.698;-0.292;2023-07-13T14:55:37;3.65;;;2.45;;
22015;SDS011;64992;51.698;-0.292;2023-07-13T15:09:28;3.83;;;2.20;;
22015;SDS011;64992;51.698;-0.292;2023-07-13T15:17:36;4.95;;;2.25;;
22015;SDS011;64992;51.698;-0.292;2023-07-13T15:20:18;5.85;;;3.05;;
22015;SDS011;64992;51.698;-0.292;2023-07-13T15:22:44;3.45;;;2.10;;
22015;SDS011;64992;51.698;-0.292;2023-07-13T15:25:22;4.28;;;2.53;;
22015;SDS011;64992;51.698;-0.292;2023-07-13T15:36:38;6.50;;;2.40;;
22015;SDS011;64992;51.698;-0.292;2023-07-13T15:42:23;4.85;;;2.20;;
22015;SDS011;64992;51.698;-0.292;2023-07-13T15:50:45;5.07;;;2.80;;
22015;SDS011;64992;51.698;-0.292;2023-07-13T15:53:12;6.53;;;2.60;;
22015;SDS011;64992;51.698;-0.292;2023-07-13T15:55:39;6.90;;;3.03;;
22015;SDS011;64992;51.698;-0.292;2023-07-13T15:58:05;7.28;;;2.97;;
22015;SDS011;64992;51.698;-0.292;2023-07-13T16:00:35;4.95;;;2.65;;
22015;SDS011;64992;51.698;-0.292;2023-07-13T16:03:18;3.78;;;2.55;;
22015;SDS011;64992;51.698;-0.292;2023-07-13T16:14:40;2.50;;;2.17;;
22015;SDS011;64992;51.698;-0.292;2023-07-13T16:17:10;3.08;;;2.08;;
22015;SDS011;64992;51.698;-0.292;2023-07-13T16:19:36;2.92;;;2.08;;
22015;SDS011;64992;51.698;-0.292;2023-07-13T16:22:02;4.65;;;2.17;;
22015;SDS011;64992;51.698;-0.292;2023-07-13T16:24:30;4.38;;;2.40;;
22015;SDS011;64992;51.698;-0.292;2023-07-13T16:26:57;4.35;;;2.33;;
22015;SDS011;64992;51.698;-0.292;2023-07-13T16:29:28;3.47;;;2.28;;
22015;SDS011;64992;51.698;-0.292;2023-07-13T16:34:21;5.47;;;2.30;;
22015;SDS011;64992;51.698;-0.292;2023-07-13T16:36:49;4.93;;;2.72;;
22015;SDS011;64992;51.698;-0.292;2023-07-13T16:39:15;5.90;;;2.30;;
22015;SDS011;64992;51.698;-0.292;2023-07-13T16:41:41;7.95;;;2.45;;
22015;SDS011;64992;51.698;-0.292;2023-07-13T16:44:12;6.38;;;2.97;;
22015;SDS011;64992;51.698;-0.292;2023-07-13T16:46:41;6.20;;;2.50;;
22015;SDS011;64992;51.698;-0.292;2023-07-13T16:49:13;5.30;;;2.40;;
22015;SDS011;64992;51.698;-0.292;2023-07-13T16:51:45;6.22;;;2.88;;
22015;SDS011;64992;51.698;-0.292;2023-07-13T17:00:20;7.90;;;2.63;;
22015;SDS011;64992;51.698;-0.292;2023-07-13T17:02:52;4.43;;;2.55;;
22015;SDS011;64992;51.698;-0.292;2023-07-13T17:05:23;4.07;;;2.20;;
22015;SDS011;64992;51.698;-0.292;2023-07-13T17:07:52;7.70;;;2.75;;
22015;SDS011;64992;51.698;-0.292;2023-07-13T17:19:29;4.32;;;2.28;;
22015;SDS011;64992;51.698;-0.292;2023-07-13T17:21:59;6.05;;;2.65;;
22015;SDS011;64992;51.698;-0.292;2023-07-13T17:27:33;5.55;;;2.72;;
22015;SDS011;64992;51.698;-0.292;2023-07-13T17:29:59;4.65;;;2.20;;
22015;SDS011;64992;51.698;-0.292;2023-07-13T17:32:36;4.57;;;2.85;;
22015;SDS011;64992;51.698;-0.292;2023-07-13T17:41:08;3.63;;;2.33;;
22015;SDS011;64992;51.698;-0.292;2023-07-13T17:43:39;5.10;;;1.83;;
22015;SDS011;64992;51.698;-0.292;2023-07-13T17:46:18;4.57;;;2.22;;
22015;SDS011;64992;51.698;-0.292;2023-07-13T17:48:46;3.00;;;2.22;;
22015;SDS011;64992;51.698;-0.292;2023-07-13T17:51:15;3.03;;;2.10;;
22015;SDS011;64992;51.698;-0.292;2023-07-13T17:53:41;2.42;;;1.38;;
22015;SDS011;64992;51.698;-0.292;2023-07-13T17:56:08;2.55;;;1.75;;
22015;SDS011;64992;51.698;-0.292;2023-07-13T17:58:35;2.78;;;1.70;;
22015;SDS011;64992;51.698;-0.292;2023-07-13T18:13:16;5.25;;;1.60;;
22015;SDS011;64992;51.698;-0.292;2023-07-13T18:21:42;2.30;;;1.00;;
22015;SDS011;64992;51.698;-0.292;2023-07-13T19:06:03;9.27;;;2.13;;
22015;SDS011;64992;51.698;-0.292;2023-07-13T19:09:09;2.30;;;1.58;;
22015;SDS011;64992;51.698;-0.292;2023-07-13T19:43:15;2.20;;;1.60;;
22015;SDS011;64992;51.698;-0.292;2023-07-13T19:48:44;2.15;;;1.55;;
22015;SDS011;64992;51.698;-0.292;2023-07-13T19:51:17;1.83;;;1.40;;
22015;SDS011;64992;51.698;-0.292;2023-07-13T19:53:54;3.55;;;1.85;;
22015;SDS011;64992;51.698;-0.292;2023-07-13T20:02:01;3.35;;;2.08;;
22015;SDS011;64992;51.698;-0.292;2023-07-13T20:04:27;5.40;;;1.98;;
22015;SDS011;64992;51.698;-0.292;2023-07-13T20:09:57;6.55;;;2.83;;
22015;SDS011;64992;51.698;-0.292;2023-07-13T20:12:35;3.45;;;1.92;;
22015;SDS011;64992;51.698;-0.292;2023-07-13T20:15:15;4.55;;;2.45;;
22015;SDS011;64992;51.698;-0.292;2023-07-13T20:20:42;4.32;;;1.77;;
22015;SDS011;64992;51.698;-0.292;2023-07-13T20:37:46;3.83;;;1.90;;
22015;SDS011;64992;51.698;-0.292;2023-07-13T20:58:49;9.27;;;2.55;;
22015;SDS011;64992;51.698;-0.292;2023-07-13T21:06:49;3.42;;;2.30;;
22015;SDS011;64992;51.698;-0.292;2023-07-13T21:21:29;4.18;;;2.83;;
22015;SDS011;64992;51.698;-0.292;2023-07-13T21:27:18;3.42;;;2.83;;
22015;SDS011;64992;51.698;-0.292;2023-07-13T21:35:55;3.85;;;2.45;;
22015;SDS011;64992;51.698;-0.292;2023-07-13T21:41:59;4.78;;;3.10;;
22015;SDS011;64992;51.698;-0.292;2023-07-13T21:44:27;3.85;;;2.90;;
22015;SDS011;64992;51.698;-0.292;2023-07-13T21:47:11;5.97;;;3.20;;
22015;SDS011;64992;51.698;-0.292;2023-07-13T21:52:25;4.50;;;3.08;;
22015;SDS011;64992;51.698;-0.292;2023-07-13T21:55:18;7.25;;;3.10;;
22015;SDS011;64992;51.698;-0.292;2023-07-13T22:00:41;3.95;;;3.10;;
22015;SDS011;64992;51.698;-0.292;2023-07-13T22:03:13;8.32;;;3.47;;
22015;SDS011;64992;51.698;-0.292;2023-07-13T22:09:16;4.85;;;3.33;;
22015;SDS011;64992;51.698;-0.292;2023-07-13T22:11:57;7.65;;;3.50;;
22015;SDS011;64992;51.698;-0.292;2023-07-13T22:14:23;3.65;;;2.80;;
22015;SDS011;64992;51.698;-0.292;2023-07-13T22:28:55;6.95;;;3.72;;
22015;SDS011;64992;51.698;-0.292;2023-07-13T22:40:15;6.20;;;3.60;;
22015;SDS011;64992;51.698;-0.292;2023-07-13T22:42:41;3.60;;;3.05;;
22015;SDS011;64992;51.698;-0.292;2023-07-13T22:45:09;7.00;;;3.50;;
22015;SDS011;64992;51.698;-0.292;2023-07-13T22:47:47;4.97;;;3.22;;
22015;SDS011;64992;51.698;-0.292;2023-07-13T23:09:15;6.10;;;3.42;;
22015;SDS011;64992;51.698;-0.292;2023-07-13T23:23:46;4.72;;;3.80;;
22015;SDS011;64992;51.698;-0.292;2023-07-13T23:32:04;5.88;;;4.03;;
22015;SDS011;64992;51.698;-0.292;2023-07-13T23:41:16;5.13;;;3.65;;
22015;SDS011;64992;51.698;-0.292;2023-07-13T23:58:35;6.43;;;4.15;;
